sensor_id;sensor_type;location;lat;lon;timestamp;P1;durP1;ratioP1;P2;durP2;ratioP2
79064;SDS011;68469;51.502;7.462;2023-08-12T00:01:18;17.35;;;13.38;;
79064;SDS011;68469;51.502;7.462;2023-08-12T00:03:46;17.98;;;13.93;;
79064;SDS011;68469;51.502;7.462;2023-08-12T00:06:12;18.83;;;15.70;;
79064;SDS011;68469;51.502;7.462;2023-08-12T00:08:38;18.77;;;15.05;;
79064;SDS011;68469;51.502;7.462;2023-08-12T00:11:03;18.17;;;15.48;;
79064;SDS011;68469;51.502;7.462;2023-08-12T00:13:29;20.00;;;16.45;;
79064;SDS011;68469;51.502;7.462;2023-08-12T00:15:55;21.05;;;16.75;;
79064;SDS011;68469;51.502;7.462;2023-08-12T00:18:21;21.50;;;16.42;;
79064;SDS011;68469;51.502;7.462;2023-08-12T00:20:47;22.00;;;18.35;;
79064;SDS011;68469;51.502;7.462;2023-08-12T00:23:13;23.73;;;18.05;;
79064;SDS011;68469;51.502;7.462;2023-08-12T00:25:38;22.88;;;18.13;;
79064;SDS011;68469;51.502;7.462;2023-08-12T00:28:04;21.52;;;17.35;;
79064;SDS011;68469;51.502;7.462;2023-08-12T00:30:30;23.27;;;18.10;;
79064;SDS011;68469;51.502;7.462;2023-08-12T00:32:55;24.38;;;16.65;;
79064;SDS011;68469;51.502;7.462;2023-08-12T00:35:21;27.35;;;20.38;;
79064;SDS011;68469;51.502;7.462;2023-08-12T00:37:47;27.40;;;19.98;;
79064;SDS011;68469;51.502;7.462;2023-08-12T00:40:13;23.08;;;18.10;;
79064;SDS011;68469;51.502;7.462;2023-08-12T00:42:38;26.27;;;20.20;;
79064;SDS011;68469;51.502;7.462;2023-08-12T00:45:13;34.45;;;21.35;;
79064;SDS011;68469;51.502;7.462;2023-08-12T00:47:38;31.90;;;23.58;;
79064;SDS011;68469;51.502;7.462;2023-08-12T00:50:06;27.40;;;21.55;;
79064;SDS011;68469;51.502;7.462;2023-08-12T00:52:33;27.95;;;21.15;;
79064;SDS011;68469;51.502;7.462;2023-08-12T00:54:59;28.73;;;21.17;;
79064;SDS011;68469;51.502;7.462;2023-08-12T00:57:25;32.63;;;22.85;;
79064;SDS011;68469;51.502;7.462;2023-08-12T00:59:51;29.83;;;23.30;;
79064;SDS011;68469;51.502;7.462;2023-08-12T01:02:17;30.10;;;22.08;;
79064;SDS011;68469;51.502;7.462;2023-08-12T01:04:43;31.77;;;24.67;;
79064;SDS011;68469;51.502;7.462;2023-08-12T01:07:09;31.23;;;23.55;;
79064;SDS011;68469;51.502;7.462;2023-08-12T01:09:35;35.58;;;25.67;;
79064;SDS011;68469;51.502;7.462;2023-08-12T01:17:09;31.00;;;25.33;;
79064;SDS011;68469;51.502;7.462;2023-08-12T01:19:39;35.10;;;25.25;;
79064;SDS011;68469;51.502;7.462;2023-08-12T01:22:07;36.33;;;26.25;;
79064;SDS011;68469;51.502;7.462;2023-08-12T01:24:44;32.55;;;25.02;;
79064;SDS011;68469;51.502;7.462;2023-08-12T01:27:10;35.65;;;24.88;;
79064;SDS011;68469;51.502;7.462;2023-08-12T01:29:38;35.70;;;24.73;;
79064;SDS011;68469;51.502;7.462;2023-08-12T01:37:19;35.97;;;27.02;;
79064;SDS011;68469;51.502;7.462;2023-08-12T01:39:50;38.28;;;25.30;;
79064;SDS011;68469;51.502;7.462;2023-08-12T01:42:18;43.17;;;29.83;;
79064;SDS011;68469;51.502;7.462;2023-08-12T01:44:45;40.90;;;29.23;;
79064;SDS011;68469;51.502;7.462;2023-08-12T01:47:11;44.03;;;29.10;;
79064;SDS011;68469;51.502;7.462;2023-08-12T01:49:37;40.85;;;30.05;;
79064;SDS011;68469;51.502;7.462;2023-08-12T01:52:03;42.40;;;30.42;;
79064;SDS011;68469;51.502;7.462;2023-08-12T01:54:29;43.40;;;29.25;;
79064;SDS011;68469;51.502;7.462;2023-08-12T01:57:03;49.85;;;30.45;;
79064;SDS011;68469;51.502;7.462;2023-08-12T01:59:33;39.08;;;27.73;;
79064;SDS011;68469;51.502;7.462;2023-08-12T02:01:59;42.55;;;28.48;;
79064;SDS011;68469;51.502;7.462;2023-08-12T02:04:25;42.15;;;26.98;;
79064;SDS011;68469;51.502;7.462;2023-08-12T02:06:51;45.47;;;27.70;;
79064;SDS011;68469;51.502;7.462;2023-08-12T02:09:17;37.28;;;26.38;;
79064;SDS011;68469;51.502;7.462;2023-08-12T02:11:43;31.92;;;22.73;;
79064;SDS011;68469;51.502;7.462;2023-08-12T02:14:09;32.85;;;24.10;;
79064;SDS011;68469;51.502;7.462;2023-08-12T02:16:34;28.83;;;21.63;;
79064;SDS011;68469;51.502;7.462;2023-08-12T02:19:00;34.72;;;22.40;;
79064;SDS011;68469;51.502;7.462;2023-08-12T02:21:25;34.40;;;22.48;;
79064;SDS011;68469;51.502;7.462;2023-08-12T02:23:51;28.35;;;21.60;;
79064;SDS011;68469;51.502;7.462;2023-08-12T02:26:16;29.67;;;20.88;;
79064;SDS011;68469;51.502;7.462;2023-08-12T02:28:42;27.80;;;21.33;;
79064;SDS011;68469;51.502;7.462;2023-08-12T02:31:08;29.30;;;21.88;;
79064;SDS011;68469;51.502;7.462;2023-08-12T02:33:33;24.75;;;19.67;;
79064;SDS011;68469;51.502;7.462;2023-08-12T02:35:59;24.20;;;20.92;;
79064;SDS011;68469;51.502;7.462;2023-08-12T02:38:24;23.17;;;19.77;;
79064;SDS011;68469;51.502;7.462;2023-08-12T02:40:50;27.00;;;20.45;;
79064;SDS011;68469;51.502;7.462;2023-08-12T02:43:16;26.85;;;20.90;;
79064;SDS011;68469;51.502;7.462;2023-08-12T02:45:42;24.70;;;19.67;;
79064;SDS011;68469;51.502;7.462;2023-08-12T02:48:09;28.48;;;21.52;;
79064;SDS011;68469;51.502;7.462;2023-08-12T02:50:35;25.23;;;19.95;;
79064;SDS011;68469;51.502;7.462;2023-08-12T02:53:01;25.83;;;20.42;;
79064;SDS011;68469;51.502;7.462;2023-08-12T02:55:26;24.58;;;19.15;;
79064;SDS011;68469;51.502;7.462;2023-08-12T02:57:52;27.50;;;20.67;;
79064;SDS011;68469;51.502;7.462;2023-08-12T03:00:17;24.52;;;20.42;;
79064;SDS011;68469;51.502;7.462;2023-08-12T03:02:43;23.90;;;19.52;;
79064;SDS011;68469;51.502;7.462;2023-08-12T03:05:09;25.52;;;19.38;;
79064;SDS011;68469;51.502;7.462;2023-08-12T03:07:35;26.63;;;21.70;;
79064;SDS011;68469;51.502;7.462;2023-08-12T03:10:00;30.58;;;23.20;;
79064;SDS011;68469;51.502;7.462;2023-08-12T03:12:26;30.25;;;22.58;;
79064;SDS011;68469;51.502;7.462;2023-08-12T03:14:51;28.38;;;23.05;;
79064;SDS011;68469;51.502;7.462;2023-08-12T03:17:17;28.77;;;22.98;;
79064;SDS011;68469;51.502;7.462;2023-08-12T03:19:43;31.65;;;23.88;;
79064;SDS011;68469;51.502;7.462;2023-08-12T03:22:08;30.10;;;24.67;;
79064;SDS011;68469;51.502;7.462;2023-08-12T03:24:34;29.25;;;23.48;;
79064;SDS011;68469;51.502;7.462;2023-08-12T03:26:59;29.08;;;22.10;;
79064;SDS011;68469;51.502;7.462;2023-08-12T03:29:25;31.42;;;24.17;;
79064;SDS011;68469;51.502;7.462;2023-08-12T03:31:51;27.63;;;22.00;;
79064;SDS011;68469;51.502;7.462;2023-08-12T03:34:16;30.75;;;22.73;;
79064;SDS011;68469;51.502;7.462;2023-08-12T03:36:42;29.85;;;22.75;;
79064;SDS011;68469;51.502;7.462;2023-08-12T03:39:08;27.48;;;21.75;;
79064;SDS011;68469;51.502;7.462;2023-08-12T03:41:33;34.85;;;24.00;;
79064;SDS011;68469;51.502;7.462;2023-08-12T03:43:59;26.15;;;22.55;;
79064;SDS011;68469;51.502;7.462;2023-08-12T03:46:24;29.17;;;23.73;;
79064;SDS011;68469;51.502;7.462;2023-08-12T03:48:50;27.00;;;23.45;;
79064;SDS011;68469;51.502;7.462;2023-08-12T03:51:15;25.40;;;21.10;;
79064;SDS011;68469;51.502;7.462;2023-08-12T03:53:41;24.67;;;20.40;;
79064;SDS011;68469;51.502;7.462;2023-08-12T03:56:07;26.77;;;22.27;;
79064;SDS011;68469;51.502;7.462;2023-08-12T03:58:32;23.13;;;19.95;;
79064;SDS011;68469;51.502;7.462;2023-08-12T04:00:59;25.27;;;20.40;;
79064;SDS011;68469;51.502;7.462;2023-08-12T04:03:25;25.23;;;21.33;;
79064;SDS011;68469;51.502;7.462;2023-08-12T04:05:51;23.23;;;19.30;;
79064;SDS011;68469;51.502;7.462;2023-08-12T04:08:23;22.02;;;18.83;;
79064;SDS011;68469;51.502;7.462;2023-08-12T04:10:50;20.40;;;18.20;;
79064;SDS011;68469;51.502;7.462;2023-08-12T04:13:16;24.90;;;19.92;;
79064;SDS011;68469;51.502;7.462;2023-08-12T04:15:42;21.50;;;18.38;;
79064;SDS011;68469;51.502;7.462;2023-08-12T04:18:07;24.08;;;18.92;;
79064;SDS011;68469;51.502;7.462;2023-08-12T04:20:33;23.48;;;19.17;;
79064;SDS011;68469;51.502;7.462;2023-08-12T04:22:59;19.52;;;16.35;;
79064;SDS011;68469;51.502;7.462;2023-08-12T04:25:24;18.20;;;16.20;;
79064;SDS011;68469;51.502;7.462;2023-08-12T04:27:50;19.85;;;17.50;;
79064;SDS011;68469;51.502;7.462;2023-08-12T04:30:16;21.45;;;17.95;;
79064;SDS011;68469;51.502;7.462;2023-08-12T04:32:44;18.38;;;16.42;;
79064;SDS011;68469;51.502;7.462;2023-08-12T04:35:09;19.92;;;17.38;;
79064;SDS011;68469;51.502;7.462;2023-08-12T04:37:35;19.00;;;16.95;;
79064;SDS011;68469;51.502;7.462;2023-08-12T04:40:02;20.63;;;16.85;;
79064;SDS011;68469;51.502;7.462;2023-08-12T04:42:32;16.38;;;14.60;;
79064;SDS011;68469;51.502;7.462;2023-08-12T04:44:57;18.00;;;16.20;;
79064;SDS011;68469;51.502;7.462;2023-08-12T04:47:23;18.02;;;16.02;;
79064;SDS011;68469;51.502;7.462;2023-08-12T04:49:49;16.73;;;15.00;;
79064;SDS011;68469;51.502;7.462;2023-08-12T04:52:14;15.68;;;13.93;;
79064;SDS011;68469;51.502;7.462;2023-08-12T04:54:40;17.77;;;13.60;;
79064;SDS011;68469;51.502;7.462;2023-08-12T04:57:06;16.05;;;14.15;;
79064;SDS011;68469;51.502;7.462;2023-08-12T04:59:31;15.50;;;12.85;;
79064;SDS011;68469;51.502;7.462;2023-08-12T05:01:57;18.30;;;15.32;;
79064;SDS011;68469;51.502;7.462;2023-08-12T05:04:22;19.73;;;13.27;;
79064;SDS011;68469;51.502;7.462;2023-08-12T05:06:48;16.83;;;14.05;;
79064;SDS011;68469;51.502;7.462;2023-08-12T05:09:14;16.30;;;13.15;;
79064;SDS011;68469;51.502;7.462;2023-08-12T05:11:39;16.75;;;13.68;;
79064;SDS011;68469;51.502;7.462;2023-08-12T05:14:05;16.50;;;13.82;;
79064;SDS011;68469;51.502;7.462;2023-08-12T05:16:30;15.52;;;13.15;;
79064;SDS011;68469;51.502;7.462;2023-08-12T05:18:56;15.68;;;14.02;;
79064;SDS011;68469;51.502;7.462;2023-08-12T05:21:22;14.40;;;12.52;;
79064;SDS011;68469;51.502;7.462;2023-08-12T05:23:48;12.65;;;10.90;;
79064;SDS011;68469;51.502;7.462;2023-08-12T05:26:13;14.02;;;12.35;;
79064;SDS011;68469;51.502;7.462;2023-08-12T05:28:39;13.38;;;11.48;;
79064;SDS011;68469;51.502;7.462;2023-08-12T05:31:04;13.18;;;11.77;;
79064;SDS011;68469;51.502;7.462;2023-08-12T05:33:30;13.13;;;11.68;;
79064;SDS011;68469;51.502;7.462;2023-08-12T05:35:55;12.60;;;11.30;;
79064;SDS011;68469;51.502;7.462;2023-08-12T05:38:21;13.38;;;11.20;;
79064;SDS011;68469;51.502;7.462;2023-08-12T05:40:47;11.73;;;10.52;;
79064;SDS011;68469;51.502;7.462;2023-08-12T05:43:12;12.18;;;10.95;;
79064;SDS011;68469;51.502;7.462;2023-08-12T05:45:38;12.48;;;9.98;;
79064;SDS011;68469;51.502;7.462;2023-08-12T05:48:03;12.60;;;10.18;;
79064;SDS011;68469;51.502;7.462;2023-08-12T05:50:29;10.68;;;8.50;;
79064;SDS011;68469;51.502;7.462;2023-08-12T05:52:55;9.85;;;8.63;;
79064;SDS011;68469;51.502;7.462;2023-08-12T05:55:20;11.93;;;8.50;;
79064;SDS011;68469;51.502;7.462;2023-08-12T05:57:46;9.02;;;8.02;;
79064;SDS011;68469;51.502;7.462;2023-08-12T06:00:12;11.75;;;7.97;;
79064;SDS011;68469;51.502;7.462;2023-08-12T06:02:37;9.00;;;8.10;;
79064;SDS011;68469;51.502;7.462;2023-08-12T06:05:03;8.25;;;7.05;;
79064;SDS011;68469;51.502;7.462;2023-08-12T06:07:29;8.43;;;7.10;;
79064;SDS011;68469;51.502;7.462;2023-08-12T06:09:55;8.00;;;7.20;;
79064;SDS011;68469;51.502;7.462;2023-08-12T06:12:21;8.82;;;7.93;;
79064;SDS011;68469;51.502;7.462;2023-08-12T06:14:46;8.13;;;7.05;;
79064;SDS011;68469;51.502;7.462;2023-08-12T06:17:12;7.07;;;6.43;;
79064;SDS011;68469;51.502;7.462;2023-08-12T06:19:37;8.50;;;6.28;;
79064;SDS011;68469;51.502;7.462;2023-08-12T06:22:03;8.48;;;7.15;;
79064;SDS011;68469;51.502;7.462;2023-08-12T06:24:29;6.88;;;6.18;;
79064;SDS011;68469;51.502;7.462;2023-08-12T06:26:54;8.68;;;6.53;;
79064;SDS011;68469;51.502;7.462;2023-08-12T06:29:20;8.63;;;6.50;;
79064;SDS011;68469;51.502;7.462;2023-08-12T06:31:45;8.05;;;5.60;;
79064;SDS011;68469;51.502;7.462;2023-08-12T06:34:11;6.80;;;5.25;;
79064;SDS011;68469;51.502;7.462;2023-08-12T06:36:36;6.65;;;5.30;;
79064;SDS011;68469;51.502;7.462;2023-08-12T06:39:02;7.75;;;5.32;;
79064;SDS011;68469;51.502;7.462;2023-08-12T06:41:28;7.68;;;5.82;;
79064;SDS011;68469;51.502;7.462;2023-08-12T06:43:54;6.13;;;5.10;;
79064;SDS011;68469;51.502;7.462;2023-08-12T06:46:19;9.82;;;5.35;;
79064;SDS011;68469;51.502;7.462;2023-08-12T06:48:45;9.93;;;5.65;;
79064;SDS011;68469;51.502;7.462;2023-08-12T06:51:10;6.40;;;5.53;;
79064;SDS011;68469;51.502;7.462;2023-08-12T06:53:36;7.45;;;6.07;;
79064;SDS011;68469;51.502;7.462;2023-08-12T06:56:03;8.18;;;5.63;;
79064;SDS011;68469;51.502;7.462;2023-08-12T06:58:29;7.50;;;5.63;;
79064;SDS011;68469;51.502;7.462;2023-08-12T07:00:55;6.68;;;5.05;;
79064;SDS011;68469;51.502;7.462;2023-08-12T07:03:21;8.02;;;5.13;;
79064;SDS011;68469;51.502;7.462;2023-08-12T07:05:47;8.23;;;6.20;;
79064;SDS011;68469;51.502;7.462;2023-08-12T07:08:13;6.07;;;5.00;;
79064;SDS011;68469;51.502;7.462;2023-08-12T07:10:39;7.20;;;5.03;;
79064;SDS011;68469;51.502;7.462;2023-08-12T07:13:05;6.18;;;4.50;;
79064;SDS011;68469;51.502;7.462;2023-08-12T07:15:31;8.55;;;4.60;;
79064;SDS011;68469;51.502;7.462;2023-08-12T07:17:56;5.50;;;4.65;;
79064;SDS011;68469;51.502;7.462;2023-08-12T07:20:22;6.35;;;4.50;;
79064;SDS011;68469;51.502;7.462;2023-08-12T07:22:51;7.68;;;4.88;;
79064;SDS011;68469;51.502;7.462;2023-08-12T07:25:16;9.70;;;4.90;;
79064;SDS011;68469;51.502;7.462;2023-08-12T07:27:42;6.53;;;5.40;;
79064;SDS011;68469;51.502;7.462;2023-08-12T07:30:08;7.35;;;5.40;;
79064;SDS011;68469;51.502;7.462;2023-08-12T07:32:34;6.57;;;5.05;;
79064;SDS011;68469;51.502;7.462;2023-08-12T07:35:00;5.70;;;5.10;;
79064;SDS011;68469;51.502;7.462;2023-08-12T07:37:26;11.43;;;6.20;;
79064;SDS011;68469;51.502;7.462;2023-08-12T07:39:52;9.70;;;5.90;;
79064;SDS011;68469;51.502;7.462;2023-08-12T07:42:17;7.88;;;6.38;;
79064;SDS011;68469;51.502;7.462;2023-08-12T07:44:43;7.68;;;5.65;;
79064;SDS011;68469;51.502;7.462;2023-08-12T07:47:09;6.35;;;5.65;;
79064;SDS011;68469;51.502;7.462;2023-08-12T07:49:34;9.65;;;5.80;;
79064;SDS011;68469;51.502;7.462;2023-08-12T07:52:00;8.48;;;6.40;;
79064;SDS011;68469;51.502;7.462;2023-08-12T07:54:26;8.85;;;6.18;;
79064;SDS011;68469;51.502;7.462;2023-08-12T07:56:51;6.93;;;5.40;;
79064;SDS011;68469;51.502;7.462;2023-08-12T07:59:18;7.78;;;5.28;;
79064;SDS011;68469;51.502;7.462;2023-08-12T08:01:44;5.75;;;5.15;;
79064;SDS011;68469;51.502;7.462;2023-08-12T08:04:10;8.43;;;6.65;;
79064;SDS011;68469;51.502;7.462;2023-08-12T08:06:36;8.05;;;5.78;;
79064;SDS011;68469;51.502;7.462;2023-08-12T08:09:02;8.38;;;4.72;;
79064;SDS011;68469;51.502;7.462;2023-08-12T08:11:29;5.88;;;4.82;;
79064;SDS011;68469;51.502;7.462;2023-08-12T08:13:57;5.03;;;4.38;;
79064;SDS011;68469;51.502;7.462;2023-08-12T08:16:23;5.57;;;3.90;;
79064;SDS011;68469;51.502;7.462;2023-08-12T08:18:49;5.90;;;4.18;;
79064;SDS011;68469;51.502;7.462;2023-08-12T08:21:15;4.22;;;3.42;;
79064;SDS011;68469;51.502;7.462;2023-08-12T08:23:41;4.47;;;2.90;;
79064;SDS011;68469;51.502;7.462;2023-08-12T08:26:07;3.25;;;2.95;;
79064;SDS011;68469;51.502;7.462;2023-08-12T08:28:33;6.03;;;3.50;;
79064;SDS011;68469;51.502;7.462;2023-08-12T08:30:59;4.15;;;2.90;;
79064;SDS011;68469;51.502;7.462;2023-08-12T08:33:25;5.90;;;3.50;;
79064;SDS011;68469;51.502;7.462;2023-08-12T08:35:51;3.20;;;2.80;;
79064;SDS011;68469;51.502;7.462;2023-08-12T08:38:17;4.10;;;2.85;;
79064;SDS011;68469;51.502;7.462;2023-08-12T08:40:43;5.32;;;3.13;;
79064;SDS011;68469;51.502;7.462;2023-08-12T08:43:08;3.80;;;2.50;;
79064;SDS011;68469;51.502;7.462;2023-08-12T08:45:35;3.40;;;2.30;;
79064;SDS011;68469;51.502;7.462;2023-08-12T08:48:02;3.35;;;2.13;;
79064;SDS011;68469;51.502;7.462;2023-08-12T08:50:29;3.85;;;2.58;;
79064;SDS011;68469;51.502;7.462;2023-08-12T08:52:55;3.05;;;2.20;;
79064;SDS011;68469;51.502;7.462;2023-08-12T08:55:22;2.28;;;1.77;;
79064;SDS011;68469;51.502;7.462;2023-08-12T08:57:48;3.45;;;2.25;;
79064;SDS011;68469;51.502;7.462;2023-08-12T09:00:18;4.50;;;1.90;;
79064;SDS011;68469;51.502;7.462;2023-08-12T09:02:45;4.15;;;1.85;;
79064;SDS011;68469;51.502;7.462;2023-08-12T09:05:13;3.15;;;2.03;;
79064;SDS011;68469;51.502;7.462;2023-08-12T09:07:40;3.85;;;2.33;;
79064;SDS011;68469;51.502;7.462;2023-08-12T09:10:07;4.57;;;2.17;;
79064;SDS011;68469;51.502;7.462;2023-08-12T09:12:33;3.28;;;2.30;;
79064;SDS011;68469;51.502;7.462;2023-08-12T09:14:59;2.70;;;2.03;;
79064;SDS011;68469;51.502;7.462;2023-08-12T09:17:25;2.15;;;1.75;;
79064;SDS011;68469;51.502;7.462;2023-08-12T09:19:51;3.63;;;2.00;;
79064;SDS011;68469;51.502;7.462;2023-08-12T09:22:17;4.07;;;2.00;;
79064;SDS011;68469;51.502;7.462;2023-08-12T09:24:43;4.20;;;1.95;;
79064;SDS011;68469;51.502;7.462;2023-08-12T09:27:09;4.25;;;2.20;;
79064;SDS011;68469;51.502;7.462;2023-08-12T09:29:35;3.92;;;2.22;;
79064;SDS011;68469;51.502;7.462;2023-08-12T09:32:19;3.78;;;2.00;;
79064;SDS011;68469;51.502;7.462;2023-08-12T09:34:48;3.47;;;2.20;;
79064;SDS011;68469;51.502;7.462;2023-08-12T09:37:15;3.78;;;2.53;;
79064;SDS011;68469;51.502;7.462;2023-08-12T09:39:41;3.42;;;1.85;;
79064;SDS011;68469;51.502;7.462;2023-08-12T09:42:07;2.85;;;2.00;;
79064;SDS011;68469;51.502;7.462;2023-08-12T09:44:37;2.28;;;1.63;;
79064;SDS011;68469;51.502;7.462;2023-08-12T09:47:03;2.78;;;1.92;;
79064;SDS011;68469;51.502;7.462;2023-08-12T09:49:30;2.33;;;1.50;;
79064;SDS011;68469;51.502;7.462;2023-08-12T09:51:55;3.90;;;1.70;;
79064;SDS011;68469;51.502;7.462;2023-08-12T09:54:22;1.70;;;1.50;;
79064;SDS011;68469;51.502;7.462;2023-08-12T09:56:52;1.90;;;1.30;;
79064;SDS011;68469;51.502;7.462;2023-08-12T09:59:21;2.20;;;1.60;;
79064;SDS011;68469;51.502;7.462;2023-08-12T10:01:49;4.00;;;1.45;;
79064;SDS011;68469;51.502;7.462;2023-08-12T10:04:16;3.42;;;1.75;;
79064;SDS011;68469;51.502;7.462;2023-08-12T10:06:43;1.90;;;1.60;;
79064;SDS011;68469;51.502;7.462;2023-08-12T10:09:10;2.70;;;1.55;;
79064;SDS011;68469;51.502;7.462;2023-08-12T10:11:37;2.30;;;1.30;;
79064;SDS011;68469;51.502;7.462;2023-08-12T10:14:05;4.57;;;1.80;;
79064;SDS011;68469;51.502;7.462;2023-08-12T10:16:33;2.97;;;2.28;;
79064;SDS011;68469;51.502;7.462;2023-08-12T10:19:00;1.88;;;1.20;;
79064;SDS011;68469;51.502;7.462;2023-08-12T10:21:27;2.15;;;1.30;;
79064;SDS011;68469;51.502;7.462;2023-08-12T10:23:53;3.70;;;1.40;;
79064;SDS011;68469;51.502;7.462;2023-08-12T10:26:19;1.75;;;1.30;;
79064;SDS011;68469;51.502;7.462;2023-08-12T10:28:45;1.90;;;1.38;;
79064;SDS011;68469;51.502;7.462;2023-08-12T10:31:13;2.35;;;1.30;;
79064;SDS011;68469;51.502;7.462;2023-08-12T10:33:39;2.63;;;1.60;;
79064;SDS011;68469;51.502;7.462;2023-08-12T10:36:06;3.22;;;1.15;;
79064;SDS011;68469;51.502;7.462;2023-08-12T10:38:32;1.48;;;1.17;;
79064;SDS011;68469;51.502;7.462;2023-08-12T10:43:53;1.77;;;1.35;;
79064;SDS011;68469;51.502;7.462;2023-08-12T10:46:30;2.22;;;1.10;;
79064;SDS011;68469;51.502;7.462;2023-08-12T10:49:07;1.45;;;1.00;;
79064;SDS011;68469;51.502;7.462;2023-08-12T10:51:47;1.80;;;1.05;;
79064;SDS011;68469;51.502;7.462;2023-08-12T11:07:39;3.00;;;1.10;;
79064;SDS011;68469;51.502;7.462;2023-08-12T11:10:14;2.10;;;1.10;;
79064;SDS011;68469;51.502;7.462;2023-08-12T11:12:41;4.53;;;1.23;;
79064;SDS011;68469;51.502;7.462;2023-08-12T11:15:12;1.42;;;0.88;;
79064;SDS011;68469;51.502;7.462;2023-08-12T11:17:41;1.65;;;0.90;;
79064;SDS011;68469;51.502;7.462;2023-08-12T11:20:08;1.85;;;0.77;;
79064;SDS011;68469;51.502;7.462;2023-08-12T11:22:36;3.00;;;0.82;;
79064;SDS011;68469;51.502;7.462;2023-08-12T11:25:04;2.08;;;0.90;;
79064;SDS011;68469;51.502;7.462;2023-08-12T11:27:51;2.38;;;1.00;;
79064;SDS011;68469;51.502;7.462;2023-08-12T11:30:17;1.40;;;0.75;;
79064;SDS011;68469;51.502;7.462;2023-08-12T11:32:46;1.92;;;0.82;;
79064;SDS011;68469;51.502;7.462;2023-08-12T11:35:13;1.95;;;1.20;;
79064;SDS011;68469;51.502;7.462;2023-08-12T11:37:40;1.67;;;0.75;;
79064;SDS011;68469;51.502;7.462;2023-08-12T11:40:08;1.55;;;0.98;;
79064;SDS011;68469;51.502;7.462;2023-08-12T11:42:35;2.42;;;0.90;;
79064;SDS011;68469;51.502;7.462;2023-08-12T11:45:05;2.92;;;0.98;;
79064;SDS011;68469;51.502;7.462;2023-08-12T11:47:34;1.92;;;0.85;;
79064;SDS011;68469;51.502;7.462;2023-08-12T11:50:04;1.92;;;1.00;;
79064;SDS011;68469;51.502;7.462;2023-08-12T11:52:30;3.30;;;1.40;;
79064;SDS011;68469;51.502;7.462;2023-08-12T11:54:56;2.17;;;1.35;;
79064;SDS011;68469;51.502;7.462;2023-08-12T11:57:22;2.85;;;1.40;;
79064;SDS011;68469;51.502;7.462;2023-08-12T11:59:48;2.08;;;1.30;;
79064;SDS011;68469;51.502;7.462;2023-08-12T12:02:15;6.25;;;1.40;;
79064;SDS011;68469;51.502;7.462;2023-08-12T12:04:41;3.55;;;1.58;;
79064;SDS011;68469;51.502;7.462;2023-08-12T12:07:19;2.25;;;1.63;;
79064;SDS011;68469;51.502;7.462;2023-08-12T12:09:52;4.43;;;1.83;;
79064;SDS011;68469;51.502;7.462;2023-08-12T12:12:25;2.60;;;1.52;;
79064;SDS011;68469;51.502;7.462;2023-08-12T12:14:51;4.22;;;1.70;;
79064;SDS011;68469;51.502;7.462;2023-08-12T12:17:21;2.70;;;1.60;;
79064;SDS011;68469;51.502;7.462;2023-08-12T12:19:51;3.65;;;1.45;;
79064;SDS011;68469;51.502;7.462;2023-08-12T12:22:25;2.15;;;1.52;;
79064;SDS011;68469;51.502;7.462;2023-08-12T12:24:52;3.00;;;1.50;;
79064;SDS011;68469;51.502;7.462;2023-08-12T12:27:18;2.30;;;1.67;;
79064;SDS011;68469;51.502;7.462;2023-08-12T12:29:44;2.50;;;1.70;;
79064;SDS011;68469;51.502;7.462;2023-08-12T12:32:09;2.15;;;1.20;;
79064;SDS011;68469;51.502;7.462;2023-08-12T12:34:35;2.10;;;1.10;;
79064;SDS011;68469;51.502;7.462;2023-08-12T12:37:00;1.42;;;1.02;;
79064;SDS011;68469;51.502;7.462;2023-08-12T12:39:26;2.22;;;1.00;;
79064;SDS011;68469;51.502;7.462;2023-08-12T12:41:52;2.05;;;0.70;;
79064;SDS011;68469;51.502;7.462;2023-08-12T12:44:17;2.70;;;0.90;;
79064;SDS011;68469;51.502;7.462;2023-08-12T12:46:43;3.55;;;0.90;;
79064;SDS011;68469;51.502;7.462;2023-08-12T12:49:08;1.77;;;0.85;;
79064;SDS011;68469;51.502;7.462;2023-08-12T12:51:34;2.10;;;1.00;;
79064;SDS011;68469;51.502;7.462;2023-08-12T12:54:00;2.22;;;0.70;;
79064;SDS011;68469;51.502;7.462;2023-08-12T12:56:25;2.00;;;0.90;;
79064;SDS011;68469;51.502;7.462;2023-08-12T12:58:51;1.85;;;0.60;;
79064;SDS011;68469;51.502;7.462;2023-08-12T13:01:16;1.55;;;0.70;;
79064;SDS011;68469;51.502;7.462;2023-08-12T13:03:42;2.05;;;0.75;;
79064;SDS011;68469;51.502;7.462;2023-08-12T13:06:08;1.38;;;0.57;;
79064;SDS011;68469;51.502;7.462;2023-08-12T13:08:33;1.00;;;0.60;;
79064;SDS011;68469;51.502;7.462;2023-08-12T13:10:59;4.80;;;0.73;;
79064;SDS011;68469;51.502;7.462;2023-08-12T13:13:24;1.40;;;0.73;;
79064;SDS011;68469;51.502;7.462;2023-08-12T13:15:50;1.85;;;0.80;;
79064;SDS011;68469;51.502;7.462;2023-08-12T13:18:16;0.90;;;0.63;;
79064;SDS011;68469;51.502;7.462;2023-08-12T13:20:42;0.98;;;0.65;;
79064;SDS011;68469;51.502;7.462;2023-08-12T13:23:07;4.43;;;1.05;;
79064;SDS011;68469;51.502;7.462;2023-08-12T13:25:33;12.27;;;2.20;;
79064;SDS011;68469;51.502;7.462;2023-08-12T13:28:00;4.45;;;1.63;;
79064;SDS011;68469;51.502;7.462;2023-08-12T13:30:26;1.88;;;1.52;;
79064;SDS011;68469;51.502;7.462;2023-08-12T13:32:52;1.80;;;1.40;;
79064;SDS011;68469;51.502;7.462;2023-08-12T13:35:18;3.50;;;1.48;;
79064;SDS011;68469;51.502;7.462;2023-08-12T13:37:44;7.25;;;1.60;;
79064;SDS011;68469;51.502;7.462;2023-08-12T13:40:09;3.75;;;1.50;;
79064;SDS011;68469;51.502;7.462;2023-08-12T13:42:36;2.55;;;1.63;;
79064;SDS011;68469;51.502;7.462;2023-08-12T13:45:05;5.45;;;2.30;;
79064;SDS011;68469;51.502;7.462;2023-08-12T13:47:31;2.95;;;2.40;;
79064;SDS011;68469;51.502;7.462;2023-08-12T13:49:58;3.10;;;2.45;;
79064;SDS011;68469;51.502;7.462;2023-08-12T13:52:24;3.10;;;2.80;;
79064;SDS011;68469;51.502;7.462;2023-08-12T13:54:49;7.75;;;3.58;;
79064;SDS011;68469;51.502;7.462;2023-08-12T13:57:15;3.90;;;3.60;;
79064;SDS011;68469;51.502;7.462;2023-08-12T13:59:41;6.22;;;4.20;;
79064;SDS011;68469;51.502;7.462;2023-08-12T14:02:12;6.45;;;5.30;;
79064;SDS011;68469;51.502;7.462;2023-08-12T14:04:37;5.85;;;5.15;;
79064;SDS011;68469;51.502;7.462;2023-08-12T14:07:03;6.80;;;6.00;;
79064;SDS011;68469;51.502;7.462;2023-08-12T14:09:29;8.13;;;6.18;;
79064;SDS011;68469;51.502;7.462;2023-08-12T14:11:55;7.85;;;6.05;;
79064;SDS011;68469;51.502;7.462;2023-08-12T14:14:21;7.57;;;5.65;;
79064;SDS011;68469;51.502;7.462;2023-08-12T14:16:46;6.13;;;5.53;;
79064;SDS011;68469;51.502;7.462;2023-08-12T14:19:13;5.20;;;4.65;;
79064;SDS011;68469;51.502;7.462;2023-08-12T14:21:41;6.65;;;5.03;;
79064;SDS011;68469;51.502;7.462;2023-08-12T14:24:10;5.38;;;4.88;;
79064;SDS011;68469;51.502;7.462;2023-08-12T14:26:35;5.57;;;5.03;;
79064;SDS011;68469;51.502;7.462;2023-08-12T14:29:01;5.78;;;5.18;;
79064;SDS011;68469;51.502;7.462;2023-08-12T14:31:27;6.15;;;5.55;;
79064;SDS011;68469;51.502;7.462;2023-08-12T14:33:52;6.88;;;6.07;;
79064;SDS011;68469;51.502;7.462;2023-08-12T14:36:18;7.97;;;6.40;;
79064;SDS011;68469;51.502;7.462;2023-08-12T14:38:43;7.82;;;7.03;;
79064;SDS011;68469;51.502;7.462;2023-08-12T14:41:09;8.75;;;7.85;;
79064;SDS011;68469;51.502;7.462;2023-08-12T14:43:35;8.88;;;8.02;;
79064;SDS011;68469;51.502;7.462;2023-08-12T14:46:02;9.82;;;8.68;;
79064;SDS011;68469;51.502;7.462;2023-08-12T14:48:28;14.38;;;10.02;;
79064;SDS011;68469;51.502;7.462;2023-08-12T14:50:54;10.60;;;9.52;;
79064;SDS011;68469;51.502;7.462;2023-08-12T14:53:20;9.27;;;8.30;;
79064;SDS011;68469;51.502;7.462;2023-08-12T14:55:46;9.30;;;8.38;;
79064;SDS011;68469;51.502;7.462;2023-08-12T14:58:11;10.38;;;9.35;;
79064;SDS011;68469;51.502;7.462;2023-08-12T15:00:37;9.10;;;8.20;;